sensor_id;sensor_type;location;lat;lon;timestamp;pressure;altitude;pressure_sealevel;temperature;humidity
16834;BME280;8533;48.426;10.868;2023-02-01T00:00:03;96707.59;;;2.50;100.00
16834;BME280;8533;48.426;10.868;2023-02-01T00:02:31;96707.28;;;2.49;100.00
16834;BME280;8533;48.426;10.868;2023-02-01T00:04:58;96711.19;;;2.45;100.00
16834;BME280;8533;48.426;10.868;2023-02-01T00:07:26;96703.02;;;2.42;100.00
16834;BME280;8533;48.426;10.868;2023-02-01T00:09:53;96702.56;;;2.38;100.00
16834;BME280;8533;48.426;10.868;2023-02-01T00:12:21;96695.06;;;2.33;100.00
16834;BME280;8533;48.426;10.868;2023-02-01T00:14:48;96691.53;;;2.29;100.00
16834;BME280;8533;48.426;10.868;2023-02-01T00:17:15;96679.50;;;2.26;100.00
16834;BME280;8533;48.426;10.868;2023-02-01T00:19:43;96679.81;;;2.27;100.00
16834;BME280;8533;48.426;10.868;2023-02-01T00:22:10;96681.62;;;2.22;100.00
16834;BME280;8533;48.426;10.868;2023-02-01T00:24:38;96682.97;;;2.18;100.00
16834;BME280;8533;48.426;10.868;2023-02-01T00:27:05;96689.77;;;2.15;100.00
16834;BME280;8533;48.426;10.868;2023-02-01T00:29:32;96681.86;;;2.17;100.00
16834;BME280;8533;48.426;10.868;2023-02-01T00:32:00;96688.83;;;2.12;100.00
16834;BME280;8533;48.426;10.868;2023-02-01T00:34:27;96682.58;;;2.11;100.00
16834;BME280;8533;48.426;10.868;2023-02-01T00:36:55;96677.94;;;2.06;100.00
16834;BME280;8533;48.426;10.868;2023-02-01T00:39:22;96679.71;;;2.06;100.00
16834;BME280;8533;48.426;10.868;2023-02-01T00:41:49;96676.02;;;2.04;100.00
16834;BME280;8533;48.426;10.868;2023-02-01T00:44:17;96674.20;;;2.09;100.00
16834;BME280;8533;48.426;10.868;2023-02-01T00:46:44;96673.09;;;2.07;100.00
16834;BME280;8533;48.426;10.868;2023-02-01T00:49:12;96671.66;;;2.05;100.00
16834;BME280;8533;48.426;10.868;2023-02-01T00:51:39;96674.23;;;2.05;100.00
16834;BME280;8533;48.426;10.868;2023-02-01T00:54:06;96667.30;;;2.05;100.00
16834;BME280;8533;48.426;10.868;2023-02-01T00:56:34;96670.69;;;2.06;100.00
16834;BME280;8533;48.426;10.868;2023-02-01T00:59:01;96669.08;;;2.05;100.00
16834;BME280;8533;48.426;10.868;2023-02-01T01:01:29;96665.52;;;2.06;100.00
16834;BME280;8533;48.426;10.868;2023-02-01T01:03:58;96673.64;;;2.03;100.00
16834;BME280;8533;48.426;10.868;2023-02-01T01:06:31;96664.23;;;2.06;100.00
16834;BME280;8533;48.426;10.868;2023-02-01T01:09:01;96670.34;;;2.09;100.00
16834;BME280;8533;48.426;10.868;2023-02-01T01:11:31;96663.60;;;2.04;100.00
16834;BME280;8533;48.426;10.868;2023-02-01T01:13:59;96665.09;;;2.02;100.00
16834;BME280;8533;48.426;10.868;2023-02-01T01:16:28;96661.02;;;2.04;100.00
16834;BME280;8533;48.426;10.868;2023-02-01T01:18:56;96659.22;;;2.08;100.00
16834;BME280;8533;48.426;10.868;2023-02-01T01:21:25;96659.39;;;2.07;100.00
16834;BME280;8533;48.426;10.868;2023-02-01T01:23:53;96653.11;;;2.05;100.00
16834;BME280;8533;48.426;10.868;2023-02-01T01:26:22;96657.36;;;2.02;100.00
16834;BME280;8533;48.426;10.868;2023-02-01T01:28:51;96655.92;;;2.00;100.00
16834;BME280;8533;48.426;10.868;2023-02-01T01:31:19;96651.74;;;1.99;100.00
16834;BME280;8533;48.426;10.868;2023-02-01T01:33:52;96650.20;;;1.94;100.00
16834;BME280;8533;48.426;10.868;2023-02-01T01:36:20;96650.05;;;1.91;100.00
16834;BME280;8533;48.426;10.868;2023-02-01T01:38:48;96646.67;;;1.90;100.00
16834;BME280;8533;48.426;10.868;2023-02-01T01:41:21;96627.78;;;1.94;100.00
16834;BME280;8533;48.426;10.868;2023-02-01T01:44:02;96626.36;;;1.91;100.00
16834;BME280;8533;48.426;10.868;2023-02-01T01:46:37;96617.84;;;1.87;100.00
16834;BME280;8533;48.426;10.868;2023-02-01T01:51:44;96603.55;;;1.84;100.00
16834;BME280;8533;48.426;10.868;2023-02-01T01:54:17;96601.46;;;1.84;100.00
16834;BME280;8533;48.426;10.868;2023-02-01T01:56:51;96596.34;;;1.80;100.00
16834;BME280;8533;48.426;10.868;2023-02-01T01:59:21;96604.88;;;1.80;100.00
16834;BME280;8533;48.426;10.868;2023-02-01T02:01:49;96611.63;;;1.81;100.00
16834;BME280;8533;48.426;10.868;2023-02-01T02:04:17;96620.23;;;1.78;100.00
16834;BME280;8533;48.426;10.868;2023-02-01T02:06:56;96619.11;;;1.76;100.00
16834;BME280;8533;48.426;10.868;2023-02-01T02:09:23;96620.26;;;1.74;100.00
16834;BME280;8533;48.426;10.868;2023-02-01T02:11:50;96613.19;;;1.72;100.00
16834;BME280;8533;48.426;10.868;2023-02-01T02:14:19;96612.52;;;1.74;100.00
16834;BME280;8533;48.426;10.868;2023-02-01T02:16:56;96615.88;;;1.78;100.00
16834;BME280;8533;48.426;10.868;2023-02-01T02:22:21;96618.14;;;1.77;100.00
16834;BME280;8533;48.426;10.868;2023-02-01T02:24:49;96614.59;;;1.78;100.00
16834;BME280;8533;48.426;10.868;2023-02-01T02:30:20;96614.07;;;1.79;100.00
16834;BME280;8533;48.426;10.868;2023-02-01T02:33:10;96608.25;;;1.81;100.00
16834;BME280;8533;48.426;10.868;2023-02-01T02:41:19;96604.88;;;1.80;100.00
16834;BME280;8533;48.426;10.868;2023-02-01T02:43:30;96615.88;;;1.78;100.00
16834;BME280;8533;48.426;10.868;2023-02-01T02:49:09;96596.97;;;1.82;100.00
16834;BME280;8533;48.426;10.868;2023-02-01T02:51:48;96599.72;;;1.80;100.00
16834;BME280;8533;48.426;10.868;2023-02-01T02:54:31;96601.98;;;1.79;100.00
16834;BME280;8533;48.426;10.868;2023-02-01T02:57:20;96597.52;;;1.77;100.00
16834;BME280;8533;48.426;10.868;2023-02-01T03:00:08;96590.27;;;1.77;100.00
16834;BME280;8533;48.426;10.868;2023-02-01T03:02:54;96595.05;;;1.80;100.00
16834;BME280;8533;48.426;10.868;2023-02-01T03:05:45;96588.08;;;1.84;100.00
16834;BME280;8533;48.426;10.868;2023-02-01T03:08:15;96589.80;;;1.88;100.00
16834;BME280;8533;48.426;10.868;2023-02-01T03:10:54;96583.14;;;1.94;100.00
16834;BME280;8533;48.426;10.868;2023-02-01T03:13:27;96585.66;;;1.98;100.00
16834;BME280;8533;48.426;10.868;2023-02-01T03:15:59;96592.73;;;2.00;100.00
16834;BME280;8533;48.426;10.868;2023-02-01T03:18:36;96586.91;;;2.02;100.00
16834;BME280;8533;48.426;10.868;2023-02-01T03:21:06;96579.66;;;2.01;100.00
16834;BME280;8533;48.426;10.868;2023-02-01T03:23:36;96572.23;;;2.02;100.00
16834;BME280;8533;48.426;10.868;2023-02-01T03:26:09;96579.28;;;2.04;100.00
16834;BME280;8533;48.426;10.868;2023-02-01T03:28:39;96582.06;;;2.03;100.00
16834;BME280;8533;48.426;10.868;2023-02-01T03:31:08;96571.43;;;2.02;100.00
16834;BME280;8533;48.426;10.868;2023-02-01T03:33:35;96571.23;;;2.03;100.00
16834;BME280;8533;48.426;10.868;2023-02-01T03:41:34;96563.27;;;2.09;100.00
16834;BME280;8533;48.426;10.868;2023-02-01T03:44:13;96560.73;;;2.05;100.00
16834;BME280;8533;48.426;10.868;2023-02-01T03:46:43;96554.18;;;2.02;100.00
16834;BME280;8533;48.426;10.868;2023-02-01T03:49:13;96554.28;;;2.05;100.00
16834;BME280;8533;48.426;10.868;2023-02-01T03:51:41;96539.78;;;2.04;100.00
16834;BME280;8533;48.426;10.868;2023-02-01T03:54:11;96555.16;;;2.12;100.00
16834;BME280;8533;48.426;10.868;2023-02-01T03:56:40;96572.23;;;2.13;100.00
16834;BME280;8533;48.426;10.868;2023-02-01T03:59:11;96569.97;;;2.14;100.00
16834;BME280;8533;48.426;10.868;2023-02-01T04:01:39;96572.55;;;2.14;100.00
16834;BME280;8533;48.426;10.868;2023-02-01T04:04:06;96573.84;;;2.14;100.00
16834;BME280;8533;48.426;10.868;2023-02-01T04:06:35;96566.10;;;2.14;100.00
16834;BME280;8533;48.426;10.868;2023-02-01T04:09:03;96573.49;;;2.17;100.00
16834;BME280;8533;48.426;10.868;2023-02-01T04:11:30;96565.50;;;2.22;100.00
16834;BME280;8533;48.426;10.868;2023-02-01T04:13:57;96570.84;;;2.21;100.00
16834;BME280;8533;48.426;10.868;2023-02-01T04:16:27;96563.80;;;2.19;100.00
16834;BME280;8533;48.426;10.868;2023-02-01T04:18:54;96565.37;;;2.20;100.00
16834;BME280;8533;48.426;10.868;2023-02-01T04:21:21;96559.92;;;2.19;100.00
16834;BME280;8533;48.426;10.868;2023-02-01T04:23:49;96564.39;;;2.21;100.00
16834;BME280;8533;48.426;10.868;2023-02-01T04:26:17;96560.97;;;2.24;100.00
16834;BME280;8533;48.426;10.868;2023-02-01T04:28:45;96569.13;;;2.28;100.00
16834;BME280;8533;48.426;10.868;2023-02-01T04:31:16;96566.86;;;2.29;100.00
16834;BME280;8533;48.426;10.868;2023-02-01T04:33:44;96565.95;;;2.26;100.00
16834;BME280;8533;48.426;10.868;2023-02-01T04:36:11;96566.55;;;2.28;100.00
16834;BME280;8533;48.426;10.868;2023-02-01T04:38:39;96566.38;;;2.29;100.00
16834;BME280;8533;48.426;10.868;2023-02-01T04:41:06;96574.42;;;2.30;100.00
16834;BME280;8533;48.426;10.868;2023-02-01T04:43:33;96572.65;;;2.31;100.00
16834;BME280;8533;48.426;10.868;2023-02-01T04:46:01;96578.75;;;2.34;100.00
16834;BME280;8533;48.426;10.868;2023-02-01T04:48:28;96574.56;;;2.33;100.00
16834;BME280;8533;48.426;10.868;2023-02-01T04:50:56;96576.97;;;2.35;100.00
16834;BME280;8533;48.426;10.868;2023-02-01T04:53:23;96572.78;;;2.34;100.00
16834;BME280;8533;48.426;10.868;2023-02-01T04:55:50;96569.58;;;2.32;100.00
16834;BME280;8533;48.426;10.868;2023-02-01T04:58:18;96559.92;;;2.29;100.00
16834;BME280;8533;48.426;10.868;2023-02-01T05:00:45;96546.53;;;2.30;100.00
16834;BME280;8533;48.426;10.868;2023-02-01T05:03:13;96544.33;;;2.27;100.00
16834;BME280;8533;48.426;10.868;2023-02-01T05:05:40;96540.74;;;2.28;100.00
16834;BME280;8533;48.426;10.868;2023-02-01T05:08:07;96536.07;;;2.27;100.00
16834;BME280;8533;48.426;10.868;2023-02-01T05:10:35;96541.13;;;2.25;100.00
16834;BME280;8533;48.426;10.868;2023-02-01T05:13:02;96546.60;;;2.26;100.00
16834;BME280;8533;48.426;10.868;2023-02-01T05:15:47;96539.52;;;2.24;100.00
16834;BME280;8533;48.426;10.868;2023-02-01T05:18:17;96545.48;;;2.24;100.00
16834;BME280;8533;48.426;10.868;2023-02-01T05:20:44;96544.51;;;2.25;100.00
16834;BME280;8533;48.426;10.868;2023-02-01T05:23:11;96544.82;;;2.26;100.00
16834;BME280;8533;48.426;10.868;2023-02-01T05:25:39;96545.66;;;2.23;100.00
16834;BME280;8533;48.426;10.868;2023-02-01T05:28:06;96541.92;;;2.25;100.00
16834;BME280;8533;48.426;10.868;2023-02-01T05:30:34;96538.55;;;2.25;100.00
16834;BME280;8533;48.426;10.868;2023-02-01T05:33:02;96537.75;;;2.24;100.00
16834;BME280;8533;48.426;10.868;2023-02-01T05:35:30;96545.91;;;2.28;100.00
16834;BME280;8533;48.426;10.868;2023-02-01T05:37:57;96539.17;;;2.27;100.00
16834;BME280;8533;48.426;10.868;2023-02-01T05:40:24;96548.98;;;2.27;100.00
16834;BME280;8533;48.426;10.868;2023-02-01T05:42:52;96534.78;;;2.27;100.00
16834;BME280;8533;48.426;10.868;2023-02-01T05:45:19;96534.42;;;2.30;100.00
16834;BME280;8533;48.426;10.868;2023-02-01T05:47:47;96534.56;;;2.33;100.00
16834;BME280;8533;48.426;10.868;2023-02-01T05:50:15;96521.48;;;2.35;100.00
16834;BME280;8533;48.426;10.868;2023-02-01T05:52:43;96510.66;;;2.35;100.00
16834;BME280;8533;48.426;10.868;2023-02-01T05:55:10;96517.71;;;2.37;100.00
16834;BME280;8533;48.426;10.868;2023-02-01T05:57:38;96523.24;;;2.45;100.00
16834;BME280;8533;48.426;10.868;2023-02-01T06:00:06;96527.60;;;2.44;100.00
16834;BME280;8533;48.426;10.868;2023-02-01T06:02:33;96526.31;;;2.44;100.00
16834;BME280;8533;48.426;10.868;2023-02-01T06:05:01;96504.20;;;2.46;100.00
16834;BME280;8533;48.426;10.868;2023-02-01T06:07:28;96516.30;;;2.45;100.00
16834;BME280;8533;48.426;10.868;2023-02-01T06:09:56;96507.89;;;2.47;100.00
16834;BME280;8533;48.426;10.868;2023-02-01T06:12:23;96516.43;;;2.48;100.00
16834;BME280;8533;48.426;10.868;2023-02-01T06:14:51;96502.36;;;2.50;100.00
16834;BME280;8533;48.426;10.868;2023-02-01T06:17:18;96506.83;;;2.52;100.00
16834;BME280;8533;48.426;10.868;2023-02-01T06:19:46;96504.56;;;2.53;100.00
16834;BME280;8533;48.426;10.868;2023-02-01T06:22:14;96508.61;;;2.52;100.00
16834;BME280;8533;48.426;10.868;2023-02-01T06:24:42;96507.63;;;2.53;100.00
16834;BME280;8533;48.426;10.868;2023-02-01T06:27:10;96506.55;;;2.51;100.00
16834;BME280;8533;48.426;10.868;2023-02-01T06:29:39;96512.69;;;2.50;100.00
16834;BME280;8533;48.426;10.868;2023-02-01T06:32:06;96523.69;;;2.48;100.00
16834;BME280;8533;48.426;10.868;2023-02-01T06:34:34;96519.50;;;2.47;100.00
16834;BME280;8533;48.426;10.868;2023-02-01T06:37:03;96519.81;;;2.48;100.00
16834;BME280;8533;48.426;10.868;2023-02-01T06:39:30;96523.69;;;2.48;100.00
16834;BME280;8533;48.426;10.868;2023-02-01T06:41:58;96522.39;;;2.48;100.00
16834;BME280;8533;48.426;10.868;2023-02-01T06:44:25;96516.25;;;2.49;100.00
16834;BME280;8533;48.426;10.868;2023-02-01T06:46:53;96516.25;;;2.49;100.00
16834;BME280;8533;48.426;10.868;2023-02-01T06:49:21;96513.00;;;2.51;100.00
16834;BME280;8533;48.426;10.868;2023-02-01T06:51:48;96507.94;;;2.54;100.00
16834;BME280;8533;48.426;10.868;2023-02-01T06:54:15;96537.14;;;2.54;100.00
16834;BME280;8533;48.426;10.868;2023-02-01T06:56:43;96519.20;;;2.57;100.00
16834;BME280;8533;48.426;10.868;2023-02-01T06:59:10;96527.92;;;2.56;100.00
16834;BME280;8533;48.426;10.868;2023-02-01T07:01:38;96532.95;;;2.53;100.00
16834;BME280;8533;48.426;10.868;2023-02-01T07:04:06;96529.08;;;2.53;100.00
16834;BME280;8533;48.426;10.868;2023-02-01T07:06:33;96523.92;;;2.53;100.00
16834;BME280;8533;48.426;10.868;2023-02-01T07:09:00;96521.60;;;2.58;100.00
16834;BME280;8533;48.426;10.868;2023-02-01T07:11:28;96530.64;;;2.58;100.00
16834;BME280;8533;48.426;10.868;2023-02-01T07:13:56;96523.48;;;2.60;100.00
16834;BME280;8533;48.426;10.868;2023-02-01T07:16:24;96526.20;;;2.63;100.00
16834;BME280;8533;48.426;10.868;2023-02-01T07:18:52;96532.60;;;2.67;100.00
16834;BME280;8533;48.426;10.868;2023-02-01T07:21:20;96533.20;;;2.69;100.00
16834;BME280;8533;48.426;10.868;2023-02-01T07:23:47;96533.63;;;2.73;100.00
16834;BME280;8533;48.426;10.868;2023-02-01T07:26:15;96535.42;;;2.72;100.00
16834;BME280;8533;48.426;10.868;2023-02-01T07:28:43;96531.98;;;2.76;100.00
16834;BME280;8533;48.426;10.868;2023-02-01T07:31:13;96527.23;;;2.79;100.00
16834;BME280;8533;48.426;10.868;2023-02-01T07:33:42;96530.34;;;2.85;100.00
16834;BME280;8533;48.426;10.868;2023-02-01T07:36:12;96535.64;;;2.88;100.00
16834;BME280;8533;48.426;10.868;2023-02-01T07:38:39;96538.72;;;2.87;100.00
16834;BME280;8533;48.426;10.868;2023-02-01T07:41:08;96538.53;;;2.89;100.00
16834;BME280;8533;48.426;10.868;2023-02-01T07:43:35;96537.97;;;2.93;100.00
16834;BME280;8533;48.426;10.868;2023-02-01T07:46:05;96535.38;;;2.93;100.00
16834;BME280;8533;48.426;10.868;2023-02-01T07:48:33;96537.60;;;2.96;100.00
16834;BME280;8533;48.426;10.868;2023-02-01T07:51:03;96538.04;;;3.00;100.00
16834;BME280;8533;48.426;10.868;2023-02-01T07:53:32;96541.91;;;3.00;100.00
16834;BME280;8533;48.426;10.868;2023-02-01T07:56:00;96552.25;;;3.00;100.00
16834;BME280;8533;48.426;10.868;2023-02-01T07:58:28;96555.37;;;3.06;100.00
16834;BME280;8533;48.426;10.868;2023-02-01T08:00:55;96558.36;;;3.10;100.00
16834;BME280;8533;48.426;10.868;2023-02-01T08:03:41;96561.38;;;3.13;100.00
16834;BME280;8533;48.426;10.868;2023-02-01T08:06:08;96568.16;;;3.14;100.00
16834;BME280;8533;48.426;10.868;2023-02-01T08:08:35;96575.02;;;3.18;100.00
16834;BME280;8533;48.426;10.868;2023-02-01T08:11:05;96569.67;;;3.19;100.00
16834;BME280;8533;48.426;10.868;2023-02-01T08:13:36;96576.26;;;3.22;100.00
16834;BME280;8533;48.426;10.868;2023-02-01T08:16:06;96572.51;;;3.24;100.00
16834;BME280;8533;48.426;10.868;2023-02-01T08:18:35;96589.31;;;3.24;100.00
16834;BME280;8533;48.426;10.868;2023-02-01T08:21:05;96582.95;;;3.27;100.00
16834;BME280;8533;48.426;10.868;2023-02-01T08:23:34;96569.26;;;3.33;100.00
16834;BME280;8533;48.426;10.868;2023-02-01T08:26:17;96574.87;;;3.36;100.00
16834;BME280;8533;48.426;10.868;2023-02-01T08:28:47;96564.34;;;3.38;100.00
16834;BME280;8533;48.426;10.868;2023-02-01T08:31:16;96561.48;;;3.43;100.00
16834;BME280;8533;48.426;10.868;2023-02-01T08:33:47;96564.02;;;3.48;100.00
16834;BME280;8533;48.426;10.868;2023-02-01T08:36:13;96574.14;;;3.49;100.00
16834;BME280;8533;48.426;10.868;2023-02-01T08:38:41;96574.94;;;3.50;100.00
16834;BME280;8533;48.426;10.868;2023-02-01T08:41:12;96573.77;;;3.52;100.00
16834;BME280;8533;48.426;10.868;2023-02-01T08:43:40;96571.31;;;3.55;100.00
16834;BME280;8533;48.426;10.868;2023-02-01T08:46:07;96557.70;;;3.57;100.00
16834;BME280;8533;48.426;10.868;2023-02-01T08:48:36;96568.05;;;3.57;100.00
16834;BME280;8533;48.426;10.868;2023-02-01T08:51:06;96572.82;;;3.60;100.00
16834;BME280;8533;48.426;10.868;2023-02-01T08:53:35;96580.39;;;3.61;100.00
16834;BME280;8533;48.426;10.868;2023-02-01T08:56:03;96583.59;;;3.63;100.00
16834;BME280;8533;48.426;10.868;2023-02-01T08:58:30;96587.20;;;3.69;100.00
16834;BME280;8533;48.426;10.868;2023-02-01T09:01:02;96582.03;;;3.69;100.00
16834;BME280;8533;48.426;10.868;2023-02-01T09:03:26;96589.11;;;3.71;100.00
16834;BME280;8533;48.426;10.868;2023-02-01T09:06:04;96582.06;;;3.75;100.00
16834;BME280;8533;48.426;10.868;2023-02-01T09:08:32;96580.40;;;3.78;100.00
16834;BME280;8533;48.426;10.868;2023-02-01T09:11:02;96574.23;;;3.79;100.00
16834;BME280;8533;48.426;10.868;2023-02-01T09:13:30;96579.01;;;3.82;100.00
16834;BME280;8533;48.426;10.868;2023-02-01T09:15:58;96569.89;;;3.87;100.00
16834;BME280;8533;48.426;10.868;2023-02-01T09:18:26;96560.55;;;3.92;100.00
16834;BME280;8533;48.426;10.868;2023-02-01T09:20:53;96557.09;;;3.96;100.00
16834;BME280;8533;48.426;10.868;2023-02-01T09:23:21;96575.73;;;4.02;100.00
16834;BME280;8533;48.426;10.868;2023-02-01T09:25:48;96575.23;;;4.02;100.00
16834;BME280;8533;48.426;10.868;2023-02-01T09:28:19;96581.02;;;4.04;100.00
16834;BME280;8533;48.426;10.868;2023-02-01T09:30:46;96583.12;;;4.05;100.00
16834;BME280;8533;48.426;10.868;2023-02-01T09:33:14;96595.94;;;4.02;100.00
16834;BME280;8533;48.426;10.868;2023-02-01T09:35:43;96586.20;;;4.04;100.00
16834;BME280;8533;48.426;10.868;2023-02-01T09:38:10;96598.41;;;4.00;100.00
16834;BME280;8533;48.426;10.868;2023-02-01T09:40:39;96595.61;;;3.95;100.00
16834;BME280;8533;48.426;10.868;2023-02-01T09:45:55;96601.11;;;4.02;100.00
16834;BME280;8533;48.426;10.868;2023-02-01T09:48:30;96600.80;;;4.01;100.00
16834;BME280;8533;48.426;10.868;2023-02-01T09:50:58;96600.03;;;4.07;100.00
16834;BME280;8533;48.426;10.868;2023-02-01T09:53:34;96601.26;;;4.11;100.00
16834;BME280;8533;48.426;10.868;2023-02-01T09:56:05;96608.41;;;4.09;100.00
16834;BME280;8533;48.426;10.868;2023-02-01T09:58:37;96612.30;;;4.09;100.00
16834;BME280;8533;48.426;10.868;2023-02-01T10:01:10;96611.61;;;4.11;100.00
16834;BME280;8533;48.426;10.868;2023-02-01T10:03:35;96620.76;;;4.14;100.00
16834;BME280;8533;48.426;10.868;2023-02-01T10:06:18;96615.64;;;4.20;100.00
16834;BME280;8533;48.426;10.868;2023-02-01T10:11:45;96627.02;;;4.33;100.00
16834;BME280;8533;48.426;10.868;2023-02-01T10:20:29;96630.63;;;4.38;100.00
16834;BME280;8533;48.426;10.868;2023-02-01T10:23:24;96628.95;;;4.41;100.00
16834;BME280;8533;48.426;10.868;2023-02-01T10:25:55;96621.50;;;4.49;100.00
16834;BME280;8533;48.426;10.868;2023-02-01T10:28:22;96612.95;;;4.55;100.00
16834;BME280;8533;48.426;10.868;2023-02-01T10:30:54;96610.77;;;4.52;100.00
16834;BME280;8533;48.426;10.868;2023-02-01T10:33:36;96620.64;;;4.59;100.00
16834;BME280;8533;48.426;10.868;2023-02-01T10:36:01;96610.09;;;4.60;100.00
16834;BME280;8533;48.426;10.868;2023-02-01T10:38:30;96603.61;;;4.54;100.00
16834;BME280;8533;48.426;10.868;2023-02-01T10:41:11;96599.41;;;4.53;100.00
16834;BME280;8533;48.426;10.868;2023-02-01T10:43:37;96595.72;;;4.51;100.00
16834;BME280;8533;48.426;10.868;2023-02-01T10:46:06;96599.50;;;4.55;100.00
16834;BME280;8533;48.426;10.868;2023-02-01T10:48:34;96601.59;;;4.56;100.00
16834;BME280;8533;48.426;10.868;2023-02-01T10:51:08;96611.55;;;4.46;100.00
16834;BME280;8533;48.426;10.868;2023-02-01T10:56:10;96599.55;;;4.38;100.00
16834;BME280;8533;48.426;10.868;2023-02-01T10:58:46;96610.26;;;4.46;100.00
16834;BME280;8533;48.426;10.868;2023-02-01T11:01:21;96602.38;;;4.50;100.00
16834;BME280;8533;48.426;10.868;2023-02-01T11:08:58;96613.58;;;4.33;100.00
16834;BME280;8533;48.426;10.868;2023-02-01T11:11:24;96605.49;;;4.26;100.00
16834;BME280;8533;48.426;10.868;2023-02-01T11:14:00;96609.06;;;4.25;100.00
16834;BME280;8533;48.426;10.868;2023-02-01T11:16:37;96609.25;;;4.23;100.00
16834;BME280;8533;48.426;10.868;2023-02-01T11:19:05;96614.34;;;4.20;100.00
16834;BME280;8533;48.426;10.868;2023-02-01T11:21:34;96615.09;;;4.14;100.00
16834;BME280;8533;48.426;10.868;2023-02-01T11:24:03;96625.23;;;4.09;100.00
16834;BME280;8533;48.426;10.868;2023-02-01T11:26:31;96618.45;;;4.08;100.00
16834;BME280;8533;48.426;10.868;2023-02-01T11:29:03;96611.30;;;4.10;100.00
16834;BME280;8533;48.426;10.868;2023-02-01T11:31:33;96621.97;;;4.11;100.00
16834;BME280;8533;48.426;10.868;2023-02-01T11:34:21;96602.37;;;4.13;100.00
16834;BME280;8533;48.426;10.868;2023-02-01T11:36:51;96597.38;;;4.11;100.00
16834;BME280;8533;48.426;10.868;2023-02-01T11:39:23;96611.00;;;4.09;100.00
16834;BME280;8533;48.426;10.868;2023-02-01T11:42:13;96611.92;;;4.12;100.00
16834;BME280;8533;48.426;10.868;2023-02-01T11:44:43;96615.06;;;4.08;100.00
16834;BME280;8533;48.426;10.868;2023-02-01T11:49:47;96608.87;;;4.02;100.00
16834;BME280;8533;48.426;10.868;2023-02-01T11:58:33;96603.67;;;3.96;100.00
16834;BME280;8533;48.426;10.868;2023-02-01T12:01:03;96612.42;;;3.95;100.00
16834;BME280;8533;48.426;10.868;2023-02-01T12:06:42;96592.22;;;3.94;100.00
16834;BME280;8533;48.426;10.868;2023-02-01T12:14:16;96596.00;;;3.98;100.00
16834;BME280;8533;48.426;10.868;2023-02-01T12:19:50;96587.56;;;4.00;100.00
16834;BME280;8533;48.426;10.868;2023-02-01T12:28:11;96580.05;;;4.12;100.00
16834;BME280;8533;48.426;10.868;2023-02-01T12:30:54;96576.08;;;4.16;100.00
16834;BME280;8533;48.426;10.868;2023-02-01T12:38:56;96562.87;;;4.21;100.00
16834;BME280;8533;48.426;10.868;2023-02-01T12:41:36;96562.57;;;4.20;100.00
16834;BME280;8533;48.426;10.868;2023-02-01T12:44:03;96554.39;;;4.23;100.00
16834;BME280;8533;48.426;10.868;2023-02-01T12:46:36;96551.73;;;4.28;100.00
16834;BME280;8533;48.426;10.868;2023-02-01T12:49:05;96548.73;;;4.31;100.00
16834;BME280;8533;48.426;10.868;2023-02-01T12:51:38;96553.84;;;4.35;100.00
16834;BME280;8533;48.426;10.868;2023-02-01T12:59:40;96544.28;;;4.35;100.00
16834;BME280;8533;48.426;10.868;2023-02-01T13:02:16;96549.27;;;4.37;100.00
16834;BME280;8533;48.426;10.868;2023-02-01T13:04:55;96547.87;;;4.41;100.00
16834;BME280;8533;48.426;10.868;2023-02-01T13:07:25;96544.91;;;4.44;100.00
16834;BME280;8533;48.426;10.868;2023-02-01T13:10:12;96545.40;;;4.43;100.00
16834;BME280;8533;48.426;10.868;2023-02-01T13:12:33;96542.39;;;4.46;100.00
16834;BME280;8533;48.426;10.868;2023-02-01T13:17:32;96537.44;;;4.45;100.00
16834;BME280;8533;48.426;10.868;2023-02-01T13:23:14;96536.04;;;4.49;100.00
16834;BME280;8533;48.426;10.868;2023-02-01T13:28:16;96538.50;;;4.40;100.00
16834;BME280;8533;48.426;10.868;2023-02-01T13:35:55;96536.89;;;4.32;100.00
16834;BME280;8533;48.426;10.868;2023-02-01T13:43:34;96543.28;;;4.30;100.00
16834;BME280;8533;48.426;10.868;2023-02-01T13:46:09;96545.94;;;4.26;100.00
16834;BME280;8533;48.426;10.868;2023-02-01T13:48:40;96546.44;;;4.25;100.00
16834;BME280;8533;48.426;10.868;2023-02-01T13:51:08;96543.73;;;4.22;100.00
16834;BME280;8533;48.426;10.868;2023-02-01T13:53:36;96545.34;;;4.23;100.00
16834;BME280;8533;48.426;10.868;2023-02-01T13:56:17;96548.42;;;4.23;100.00
16834;BME280;8533;48.426;10.868;2023-02-01T13:58:45;96551.13;;;4.26;100.00
16834;BME280;8533;48.426;10.868;2023-02-01T14:03:56;96544.16;;;4.26;100.00
16834;BME280;8533;48.426;10.868;2023-02-01T14:19:28;96556.95;;;4.10;100.00
16834;BME280;8533;48.426;10.868;2023-02-01T14:21:57;96549.56;;;4.07;100.00
16834;BME280;8533;48.426;10.868;2023-02-01T14:24:33;96545.47;;;4.02;100.00
16834;BME280;8533;48.426;10.868;2023-02-01T14:29:45;96543.50;;;4.04;100.00
16834;BME280;8533;48.426;10.868;2023-02-01T14:32:22;96544.55;;;3.99;100.00
16834;BME280;8533;48.426;10.868;2023-02-01T14:34:51;96530.02;;;3.98;100.00
16834;BME280;8533;48.426;10.868;2023-02-01T14:37:23;96538.09;;;3.99;100.00
16834;BME280;8533;48.426;10.868;2023-02-01T14:40:03;96541.78;;;4.01;100.00
16834;BME280;8533;48.426;10.868;2023-02-01T14:42:42;96538.00;;;3.97;100.00
16834;BME280;8533;48.426;10.868;2023-02-01T14:53:03;96539.17;;;3.94;100.00
16834;BME280;8533;48.426;10.868;2023-02-01T14:58:14;96538.19;;;3.95;100.00
16834;BME280;8533;48.426;10.868;2023-02-01T15:00:35;96541.97;;;3.99;100.00
16834;BME280;8533;48.426;10.868;2023-02-01T15:03:23;96543.00;;;4.05;100.00
16834;BME280;8533;48.426;10.868;2023-02-01T15:05:58;96543.99;;;4.04;100.00
16834;BME280;8533;48.426;10.868;2023-02-01T15:08:37;96524.29;;;4.09;100.00
16834;BME280;8533;48.426;10.868;2023-02-01T15:11:08;96532.48;;;4.13;100.00
16834;BME280;8533;48.426;10.868;2023-02-01T15:13:34;96531.08;;;4.17;100.00
16834;BME280;8533;48.426;10.868;2023-02-01T15:16:12;96529.48;;;4.16;99.99
16834;BME280;8533;48.426;10.868;2023-02-01T15:18:39;96539.64;;;4.17;99.63
16834;BME280;8533;48.426;10.868;2023-02-01T15:21:16;96544.23;;;4.22;98.50